createdAt,value
2018-11-26T00:00:44.066Z,31.90
2018-11-26T00:03:12.119Z,33.37
2018-11-26T00:05:40.008Z,33.83
2018-11-26T00:08:08.415Z,30.73
2018-11-26T00:10:41.858Z,32.77
2018-11-26T00:13:09.298Z,32.37
2018-11-26T00:15:36.812Z,33.70
2018-11-26T00:18:04.298Z,31.80
2018-11-26T00:20:31.768Z,34.10
2018-11-26T00:22:59.659Z,32.77
2018-11-26T00:25:27.241Z,34.23
2018-11-26T00:27:54.788Z,35.03
2018-11-26T00:30:26.193Z,32.00
2018-11-26T00:32:54.535Z,32.47
2018-11-26T00:35:22.109Z,32.63
2018-11-26T00:37:50.171Z,31.57
2018-11-26T00:40:17.659Z,34.00
2018-11-26T00:42:45.303Z,33.03
2018-11-26T00:45:12.800Z,32.93
2018-11-26T00:47:40.360Z,33.53
2018-11-26T00:50:08.465Z,33.27
2018-11-26T00:52:35.997Z,32.40
2018-11-26T00:55:03.476Z,33.50
2018-11-26T00:57:31.164Z,33.60
2018-11-26T00:59:58.825Z,30.63
2018-11-26T01:02:26.461Z,34.07
2018-11-26T01:04:54.814Z,33.93
2018-11-26T01:07:22.239Z,33.13
2018-11-26T01:09:49.757Z,31.90
2018-11-26T01:12:17.277Z,33.53
2018-11-26T01:14:44.810Z,30.23
2018-11-26T01:17:12.457Z,31.43
2018-11-26T01:19:40.797Z,30.90
2018-11-26T01:22:08.307Z,31.53
2018-11-26T01:24:35.731Z,31.47
2018-11-26T01:27:03.331Z,31.43
2018-11-26T01:29:30.759Z,30.13
2018-11-26T01:31:58.222Z,30.97
2018-11-26T01:34:25.696Z,31.37
2018-11-26T01:36:53.226Z,29.13
2018-11-26T01:39:20.677Z,30.77
2018-11-26T01:41:48.072Z,31.27
2018-11-26T01:44:16.256Z,30.63
2018-11-26T01:46:44.898Z,32.23
2018-11-26T01:49:12.964Z,30.33
2018-11-26T01:51:40.509Z,30.77
2018-11-26T01:54:08.076Z,31.83
2018-11-26T01:56:35.526Z,29.77
2018-11-26T01:59:03.064Z,29.50
2018-11-26T02:01:30.635Z,30.03
2018-11-26T02:03:58.114Z,30.80
2018-11-26T02:06:25.600Z,31.73
2018-11-26T02:08:53.107Z,29.40
2018-11-26T02:11:20.529Z,30.20
2018-11-26T02:13:48.073Z,30.33
2018-11-26T02:16:15.636Z,30.53
2018-11-26T02:18:43.181Z,29.23
2018-11-26T02:21:10.930Z,29.50
2018-11-26T02:23:38.400Z,28.87
2018-11-26T02:26:05.947Z,29.73
2018-11-26T02:28:33.450Z,28.53
2018-11-26T02:31:00.951Z,29.50
2018-11-26T02:33:28.345Z,30.13
2018-11-26T02:35:55.821Z,30.13
2018-11-26T02:38:23.314Z,29.17
2018-11-26T02:40:50.860Z,30.70
2018-11-26T02:43:18.383Z,29.30
2018-11-26T02:45:45.922Z,28.70
2018-11-26T02:48:13.539Z,30.07
2018-11-26T02:50:41.082Z,29.67
2018-11-26T02:53:08.652Z,30.57
2018-11-26T02:55:36.220Z,30.00
2018-11-26T02:58:03.696Z,28.67
2018-11-26T03:00:31.161Z,29.13
2018-11-26T03:02:58.726Z,30.63
2018-11-26T03:05:28.241Z,29.33
2018-11-26T03:07:55.683Z,29.77
2018-11-26T03:10:23.272Z,28.17
2018-11-26T03:12:50.908Z,28.87
2018-11-26T03:15:18.491Z,30.77
2018-11-26T03:17:46.091Z,29.23
2018-11-26T03:20:13.589Z,28.57
2018-11-26T03:22:41.122Z,29.83
2018-11-26T03:25:09.352Z,27.90
2018-11-26T03:27:36.961Z,29.77
2018-11-26T03:30:05.658Z,30.40
2018-11-26T03:32:33.177Z,29.43
2018-11-26T03:35:00.690Z,31.10
2018-11-26T03:37:28.360Z,30.03
2018-11-26T03:39:55.808Z,29.23
2018-11-26T03:42:23.867Z,28.17
2018-11-26T03:44:51.478Z,28.67
2018-11-26T03:47:19.154Z,29.83
2018-11-26T03:49:46.826Z,28.83
2018-11-26T03:52:14.482Z,29.83
2018-11-26T03:54:41.992Z,28.70
2018-11-26T03:57:09.512Z,28.93
2018-11-26T03:59:37.037Z,27.87
2018-11-26T04:02:04.646Z,29.07
2018-11-26T04:04:32.142Z,28.87
2018-11-26T04:06:59.609Z,29.07
2018-11-26T04:09:27.091Z,30.73
2018-11-26T04:11:54.696Z,28.77
2018-11-26T04:14:22.369Z,31.30
2018-11-26T04:16:49.954Z,28.73
2018-11-26T04:19:17.484Z,28.97
2018-11-26T04:21:45.007Z,28.63
2018-11-26T04:24:12.589Z,30.00
2018-11-26T04:26:40.075Z,30.90
2018-11-26T04:29:07.547Z,29.63
2018-11-26T04:31:35.048Z,29.67
2018-11-26T04:34:02.502Z,30.00
2018-11-26T04:36:29.973Z,30.07
2018-11-26T04:38:57.518Z,29.17
2018-11-26T04:41:24.984Z,30.37
2018-11-26T04:43:52.438Z,29.87
2018-11-26T04:46:20.474Z,30.37
2018-11-26T04:48:48.020Z,30.57
2018-11-26T04:51:16.102Z,30.93
2018-11-26T04:53:43.563Z,29.30
2018-11-26T04:56:11.079Z,30.20
2018-11-26T04:58:38.655Z,31.70
2018-11-26T05:01:06.128Z,29.90
2018-11-26T05:03:33.592Z,30.00
2018-11-26T05:06:01.055Z,29.40
2018-11-26T05:08:28.556Z,31.20
2018-11-26T05:10:56.170Z,30.70
2018-11-26T05:13:23.667Z,30.47
2018-11-26T05:15:51.221Z,29.23
2018-11-26T05:18:18.695Z,30.33
2018-11-26T05:20:46.151Z,31.53
2018-11-26T05:23:13.758Z,29.93
2018-11-26T05:25:41.165Z,29.60
2018-11-26T05:28:08.725Z,31.53
2018-11-26T05:30:36.154Z,31.77
2018-11-26T05:33:03.665Z,32.30
2018-11-26T05:35:31.208Z,31.97
2018-11-26T05:37:59.364Z,29.73
2018-11-26T05:40:26.841Z,31.47
2018-11-26T05:42:54.398Z,30.53
2018-11-26T05:45:21.893Z,30.23
2018-11-26T05:47:49.392Z,31.43
2018-11-26T05:50:16.935Z,30.53
2018-11-26T05:52:44.497Z,30.33
2018-11-26T05:55:13.421Z,31.43
2018-11-26T05:57:40.896Z,31.00
2018-11-26T06:00:11.295Z,29.90
2018-11-26T06:02:38.868Z,30.60
2018-11-26T06:05:06.962Z,29.30
2018-11-26T06:07:35.091Z,29.67
2018-11-26T06:10:02.705Z,29.73
2018-11-26T06:12:30.522Z,28.77
2018-11-26T06:14:58.006Z,28.50
2018-11-26T06:17:25.455Z,31.20
2018-11-26T06:19:53.080Z,30.73
2018-11-26T06:22:20.660Z,30.43
2018-11-26T06:24:48.122Z,28.77
2018-11-26T06:27:16.339Z,29.33
2018-11-26T06:29:44.604Z,28.53
2018-11-26T06:32:12.248Z,28.53
2018-11-26T06:34:42.493Z,28.03
2018-11-26T06:37:07.206Z,30.53
2018-11-26T06:39:34.744Z,28.00
2018-11-26T06:42:02.234Z,27.93
2018-11-26T06:44:29.857Z,30.43
2018-11-26T06:46:57.282Z,31.10
2018-11-26T06:49:24.749Z,29.67
2018-11-26T06:51:52.253Z,29.77
2018-11-26T06:54:19.693Z,30.57
2018-11-26T06:56:47.146Z,30.43
2018-11-26T06:59:14.699Z,28.97
2018-11-26T07:01:42.261Z,28.40
2018-11-26T07:04:09.765Z,28.53
2018-11-26T07:06:37.321Z,29.00
2018-11-26T07:09:06.706Z,27.87
2018-11-26T07:11:34.166Z,30.27
2018-11-26T07:14:01.726Z,28.80
2018-11-26T07:16:29.241Z,29.07
2018-11-26T07:18:56.682Z,29.37
2018-11-26T07:21:24.129Z,28.83
2018-11-26T07:23:51.647Z,28.90
2018-11-26T07:26:19.126Z,28.03
2018-11-26T07:28:46.618Z,29.07
2018-11-26T07:31:14.120Z,28.93
2018-11-26T07:33:41.720Z,29.30
2018-11-26T07:36:11.427Z,27.43
2018-11-26T07:38:36.752Z,28.40
2018-11-26T07:41:04.179Z,29.00
2018-11-26T07:43:31.616Z,29.80
2018-11-26T07:45:59.108Z,28.37
2018-11-26T07:48:26.562Z,29.17
2018-11-26T07:50:53.988Z,29.73
2018-11-26T07:53:21.424Z,29.53
2018-11-26T07:55:48.828Z,28.13
2018-11-26T07:58:16.326Z,28.33
2018-11-26T08:00:43.737Z,27.27
2018-11-26T08:03:11.204Z,29.77
2018-11-26T08:05:38.669Z,28.43
2018-11-26T08:08:06.160Z,28.17
2018-11-26T08:10:33.715Z,28.17
2018-11-26T08:13:01.244Z,28.83
2018-11-26T08:15:29.053Z,27.73
2018-11-26T08:17:56.599Z,29.27
2018-11-26T08:20:24.139Z,28.70
2018-11-26T08:22:51.633Z,27.77
2018-11-26T08:25:20.752Z,27.73
2018-11-26T08:27:48.642Z,27.60
2018-11-26T08:30:17.533Z,28.33
2018-11-26T08:32:46.172Z,28.30
2018-11-26T08:35:14.329Z,27.17
2018-11-26T08:37:47.186Z,27.10
2018-11-26T08:40:24.998Z,28.90
2018-11-26T08:42:57.983Z,29.80
2018-11-26T08:45:30.878Z,27.40
2018-11-26T08:48:03.690Z,29.10
2018-11-26T08:50:31.287Z,26.63
2018-11-26T08:52:58.779Z,28.40
2018-11-26T08:55:26.318Z,29.00
2018-11-26T08:57:53.853Z,26.83
2018-11-26T09:00:21.451Z,29.20
2018-11-26T09:02:53.231Z,29.50
2018-11-26T09:05:24.268Z,29.40
2018-11-26T09:07:50.769Z,28.87
2018-11-26T09:10:18.408Z,28.90
2018-11-26T09:12:45.931Z,28.57
2018-11-26T09:15:13.404Z,28.77
2018-11-26T09:17:41.129Z,28.47
2018-11-26T09:20:10.182Z,28.63
2018-11-26T09:22:37.657Z,28.83
2018-11-26T09:25:07.042Z,29.53
2018-11-26T09:27:34.521Z,28.83
2018-11-26T09:30:01.963Z,28.87
2018-11-26T09:32:29.528Z,29.40
2018-11-26T09:34:57.570Z,28.33
2018-11-26T09:37:25.032Z,27.87
2018-11-26T09:39:52.546Z,30.53
2018-11-26T09:42:20.923Z,28.70
2018-11-26T09:44:48.412Z,28.80
2018-11-26T09:47:15.926Z,29.57
2018-11-26T09:49:43.352Z,29.57
2018-11-26T09:52:10.779Z,29.67
2018-11-26T09:54:38.272Z,29.70
2018-11-26T09:57:06.304Z,28.70
2018-11-26T09:59:33.938Z,28.60
2018-11-26T10:02:01.655Z,27.57
2018-11-26T10:04:29.222Z,28.63
2018-11-26T10:06:56.759Z,28.20
2018-11-26T10:09:24.448Z,28.97
2018-11-26T10:11:52.048Z,29.10
2018-11-26T10:14:19.504Z,29.40
2018-11-26T10:16:47.169Z,29.30
2018-11-26T10:19:14.703Z,28.73
2018-11-26T10:21:42.484Z,28.43
2018-11-26T10:24:10.046Z,28.70
2018-11-26T10:26:37.561Z,29.23
2018-11-26T10:29:05.017Z,29.13
2018-11-26T10:31:32.517Z,29.03
2018-11-26T10:34:00.106Z,27.67
2018-11-26T10:36:27.547Z,28.50
2018-11-26T10:38:54.976Z,28.50
2018-11-26T10:41:22.495Z,27.30
2018-11-26T10:43:50.096Z,27.73
2018-11-26T10:46:17.629Z,27.67
2018-11-26T10:48:45.145Z,27.10
2018-11-26T10:51:12.657Z,26.20
2018-11-26T10:53:40.604Z,28.50
2018-11-26T10:56:08.251Z,26.47
2018-11-26T10:58:35.794Z,27.93
2018-11-26T11:01:07.597Z,27.47
2018-11-26T11:03:35.168Z,25.93
2018-11-26T11:06:02.718Z,25.23
2018-11-26T11:08:30.224Z,24.67
2018-11-26T11:10:57.697Z,25.97
2018-11-26T11:13:25.296Z,26.27
2018-11-26T11:15:53.225Z,26.53
2018-11-26T11:18:20.782Z,25.73
2018-11-26T11:20:48.360Z,26.27
2018-11-26T11:23:15.925Z,24.10
2018-11-26T11:25:43.381Z,25.10
2018-11-26T11:28:10.930Z,25.00
2018-11-26T11:30:38.424Z,25.67
2018-11-26T11:35:37.718Z,24.27
2018-11-26T11:38:05.201Z,25.33
2018-11-26T11:40:32.701Z,24.63
2018-11-26T11:43:00.502Z,25.03
2018-11-26T11:46:08.887Z,24.93
2018-11-26T11:48:36.400Z,24.03
2018-11-26T11:51:04.048Z,25.80
2018-11-26T11:53:31.665Z,24.80
2018-11-26T11:55:59.251Z,24.63
2018-11-26T11:58:26.845Z,24.93
2018-11-26T12:00:54.448Z,25.93
2018-11-26T12:03:21.906Z,24.90
2018-11-26T12:05:49.489Z,24.77
2018-11-26T12:08:17.001Z,24.27
2018-11-26T12:10:44.554Z,25.60
2018-11-26T12:13:12.676Z,23.57
2018-11-26T12:15:40.945Z,24.57
2018-11-26T12:18:08.923Z,23.60
2018-11-26T12:20:37.131Z,24.53
2018-11-26T12:23:04.625Z,24.67
2018-11-26T12:25:32.359Z,25.73
2018-11-26T12:27:59.927Z,24.60
2018-11-26T12:30:28.494Z,23.17
2018-11-26T12:32:55.956Z,24.50
2018-11-26T12:35:23.767Z,25.10
2018-11-26T12:37:51.571Z,23.83
2018-11-26T12:40:20.456Z,23.83
2018-11-26T12:42:48.499Z,24.60
2018-11-26T12:45:17.542Z,24.03
2018-11-26T12:47:45.944Z,24.40
2018-11-26T12:50:13.445Z,24.20
2018-11-26T12:52:40.939Z,25.33
2018-11-26T12:55:09.472Z,23.93
2018-11-26T12:57:37.130Z,24.37
2018-11-26T13:00:05.778Z,24.23
2018-11-26T13:02:33.396Z,25.83
2018-11-26T13:05:00.857Z,24.67
2018-11-26T13:07:28.501Z,25.07
2018-11-26T13:09:56.075Z,23.73
2018-11-26T13:12:23.712Z,23.13
2018-11-26T13:14:51.202Z,23.50
2018-11-26T13:17:18.586Z,23.60
2018-11-26T13:19:46.082Z,24.57
2018-11-26T13:22:13.522Z,23.07
2018-11-26T13:24:41.009Z,24.47
2018-11-26T13:27:08.592Z,23.87
2018-11-26T13:29:35.985Z,22.53
2018-11-26T13:32:03.417Z,24.20
2018-11-26T13:34:30.919Z,23.13
2018-11-26T13:36:58.338Z,23.43
2018-11-26T13:39:25.815Z,24.23
2018-11-26T13:41:53.306Z,24.03
2018-11-26T13:44:20.785Z,24.50
2018-11-26T13:46:48.287Z,24.47
2018-11-26T13:49:15.848Z,23.67
2018-11-26T13:51:43.397Z,23.80
2018-11-26T13:54:10.884Z,22.10
2018-11-26T13:56:38.352Z,23.57
2018-11-26T13:59:06.166Z,22.47
2018-11-26T14:01:33.761Z,23.47
2018-11-26T14:04:01.196Z,22.73
2018-11-26T14:06:29.358Z,24.23
2018-11-26T14:08:56.923Z,23.20
2018-11-26T14:11:32.492Z,23.23
2018-11-26T14:14:06.720Z,23.97
2018-11-26T14:16:34.152Z,22.83
2018-11-26T14:19:01.637Z,23.40
2018-11-26T14:21:29.172Z,23.40
2018-11-26T14:23:56.690Z,23.10
2018-11-26T14:26:24.248Z,24.10
2018-11-26T14:28:51.833Z,23.20
2018-11-26T14:31:19.522Z,22.87
2018-11-26T14:33:48.303Z,24.07
2018-11-26T14:36:15.790Z,24.90
2018-11-26T14:38:43.251Z,23.90
2018-11-26T14:41:10.878Z,24.87
2018-11-26T14:43:38.397Z,23.97
2018-11-26T14:46:05.970Z,22.63
2018-11-26T14:48:33.549Z,23.67
2018-11-26T14:51:01.065Z,22.67
2018-11-26T14:53:28.483Z,23.47
2018-11-26T14:55:56.106Z,23.83
2018-11-26T14:58:23.742Z,24.43
2018-11-26T15:00:51.602Z,25.20
2018-11-26T15:03:19.200Z,25.63
2018-11-26T15:05:46.651Z,24.60
2018-11-26T15:08:14.186Z,24.80
2018-11-26T15:10:41.713Z,26.77
2018-11-26T15:13:09.259Z,26.80
2018-11-26T15:15:36.717Z,25.70
2018-11-26T15:18:04.246Z,26.60
2018-11-26T15:20:32.394Z,26.43
2018-11-26T15:23:00.249Z,26.43
2018-11-26T15:25:28.427Z,25.67
2018-11-26T15:27:56.678Z,25.30
2018-11-26T15:30:24.357Z,26.40
2018-11-26T15:32:51.916Z,28.63
2018-11-26T15:35:20.127Z,26.83
2018-11-26T15:37:47.638Z,26.20
2018-11-26T15:40:15.461Z,28.03
2018-11-26T15:42:42.961Z,26.50
2018-11-26T15:45:13.031Z,26.77
2018-11-26T15:47:40.574Z,27.67
2018-11-26T15:50:08.486Z,27.20
2018-11-26T15:52:35.995Z,27.53
2018-11-26T15:55:04.231Z,27.80
2018-11-26T15:57:31.734Z,25.23
2018-11-26T15:59:59.270Z,26.37
2018-11-26T16:02:26.954Z,25.87
2018-11-26T16:04:54.430Z,25.83
2018-11-26T16:07:22.056Z,28.73
2018-11-26T16:09:49.589Z,26.33
2018-11-26T16:12:18.054Z,27.90
2018-11-26T16:14:45.497Z,27.00
2018-11-26T16:17:12.935Z,28.23
2018-11-26T16:19:40.426Z,28.83
2018-11-26T16:22:07.795Z,29.13
2018-11-26T16:24:35.262Z,29.70
2018-11-26T16:27:02.720Z,29.93
2018-11-26T16:29:30.153Z,29.67
2018-11-26T16:31:57.795Z,30.50
2018-11-26T16:34:25.402Z,31.00
2018-11-26T16:36:52.976Z,31.03
2018-11-26T16:39:20.527Z,30.20
2018-11-26T16:41:47.989Z,29.60
2018-11-26T16:44:15.833Z,30.00
2018-11-26T16:46:43.267Z,31.87
2018-11-26T16:49:10.760Z,30.17
2018-11-26T16:51:38.393Z,29.00
2018-11-26T16:54:06.006Z,28.90
2018-11-26T16:56:33.691Z,28.47
2018-11-26T16:59:01.133Z,28.67
2018-11-26T17:01:28.753Z,27.57
2018-11-26T17:03:56.247Z,28.20
2018-11-26T17:06:23.775Z,29.00
2018-11-26T17:08:51.916Z,27.10
2018-11-26T17:11:19.361Z,27.83
2018-11-26T17:13:46.841Z,27.37
2018-11-26T17:16:14.291Z,26.13
2018-11-26T17:18:41.909Z,28.20
2018-11-26T17:21:09.329Z,25.67
2018-11-26T17:23:37.073Z,25.90
2018-11-26T17:26:04.657Z,26.30
2018-11-26T17:28:32.127Z,25.83
2018-11-26T17:31:00.492Z,25.73
2018-11-26T17:33:27.961Z,25.30
2018-11-26T17:35:55.611Z,25.13
2018-11-26T17:38:23.245Z,24.90
2018-11-26T17:40:50.681Z,25.90
2018-11-26T17:43:18.315Z,24.03
2018-11-26T17:45:46.947Z,25.17
2018-11-26T17:48:14.382Z,25.40
2018-11-26T17:50:43.451Z,24.53
2018-11-26T17:53:12.940Z,24.70
2018-11-26T17:55:45.863Z,24.93
2018-11-26T17:58:13.375Z,24.03
2018-11-26T18:00:40.895Z,25.90
2018-11-26T18:03:08.421Z,25.07
2018-11-26T18:05:35.869Z,24.90
2018-11-26T18:08:05.071Z,24.93
2018-11-26T18:10:32.594Z,24.87
2018-11-26T18:13:00.707Z,24.00
2018-11-26T18:15:28.180Z,23.23
2018-11-26T18:17:55.710Z,24.33
2018-11-26T18:20:23.256Z,24.30
2018-11-26T18:22:51.579Z,23.70
2018-11-26T18:25:19.445Z,24.83
2018-11-26T18:28:02.672Z,24.97
2018-11-26T18:30:31.041Z,24.87
2018-11-26T18:32:58.725Z,23.37
2018-11-26T18:35:26.245Z,23.50
2018-11-26T18:37:53.682Z,24.13
2018-11-26T18:40:21.233Z,25.67
2018-11-26T18:42:48.685Z,24.07
2018-11-26T18:45:16.882Z,23.33
2018-11-26T18:47:44.603Z,24.23
2018-11-26T18:50:14.297Z,23.97
2018-11-26T18:52:42.561Z,23.70
2018-11-26T18:55:10.321Z,24.00
2018-11-26T18:57:37.876Z,24.37
2018-11-26T19:00:08.675Z,25.40
2018-11-26T19:02:36.129Z,24.20
2018-11-26T19:05:03.561Z,25.20
2018-11-26T19:07:31.028Z,24.07
2018-11-26T19:09:58.549Z,25.43
2018-11-26T19:12:26.041Z,24.87
2018-11-26T19:14:55.956Z,24.83
2018-11-26T19:17:23.497Z,25.57
2018-11-26T19:19:51.019Z,25.77
2018-11-26T19:22:26.690Z,25.40
2018-11-26T19:24:54.367Z,25.23
2018-11-26T19:27:21.961Z,24.90
2018-11-26T19:29:49.488Z,25.90
2018-11-26T19:32:17.093Z,24.73
2018-11-26T19:34:44.625Z,24.60
2018-11-26T19:37:12.136Z,24.93
2018-11-26T19:39:39.604Z,25.73
2018-11-26T19:42:07.104Z,26.87
2018-11-26T19:44:34.641Z,26.30
2018-11-26T19:47:02.186Z,25.37
2018-11-26T19:49:29.674Z,25.63
2018-11-26T19:51:57.212Z,25.57
2018-11-26T19:54:24.689Z,26.30
2018-11-26T19:56:52.210Z,24.10
2018-11-26T19:59:23.593Z,26.00
2018-11-26T20:01:51.173Z,26.83
2018-11-26T20:04:21.770Z,26.87
2018-11-26T20:06:49.307Z,26.77
2018-11-26T20:09:17.421Z,28.10
2018-11-26T20:11:44.865Z,26.70
2018-11-26T20:14:12.328Z,26.77
2018-11-26T20:16:40.985Z,26.83
2018-11-26T20:19:08.408Z,26.63
2018-11-26T20:21:35.850Z,26.33
2018-11-26T20:24:08.725Z,26.97
2018-11-26T20:26:36.207Z,26.30
2018-11-26T20:29:03.751Z,27.40
2018-11-26T20:31:31.427Z,27.50
2018-11-26T20:33:58.921Z,28.10
2018-11-26T20:36:27.030Z,27.00
2018-11-26T20:38:54.904Z,27.77
2018-11-26T20:41:22.488Z,27.37
2018-11-26T20:43:49.986Z,28.17
2018-11-26T20:46:22.185Z,27.43
2018-11-26T20:48:49.751Z,26.90
2018-11-26T20:51:17.281Z,28.40
2018-11-26T20:53:44.862Z,28.57
2018-11-26T20:56:14.759Z,27.40
2018-11-26T20:58:42.537Z,27.10
2018-11-26T21:01:10.070Z,26.97
2018-11-26T21:03:37.550Z,27.63
2018-11-26T21:06:05.543Z,27.90
2018-11-26T21:08:33.177Z,27.00
2018-11-26T21:11:00.801Z,27.20
2018-11-26T21:13:28.455Z,28.07
2018-11-26T21:15:56.154Z,27.80
2018-11-26T21:18:23.776Z,27.43
2018-11-26T21:20:51.379Z,26.60
2018-11-26T21:23:19.702Z,27.27
2018-11-26T21:25:47.137Z,27.03
2018-11-26T21:28:14.650Z,26.37
2018-11-26T21:30:42.107Z,25.70
2018-11-26T21:33:10.818Z,26.27
2018-11-26T21:35:38.228Z,26.27
2018-11-26T21:38:06.446Z,25.97
2018-11-26T21:40:34.033Z,26.30
2018-11-26T21:43:06.070Z,24.80
2018-11-26T21:45:35.675Z,26.63
2018-11-26T21:48:03.065Z,24.30
2018-11-26T21:50:31.147Z,25.23
2018-11-26T21:52:58.561Z,24.83
2018-11-26T21:55:26.042Z,25.57
2018-11-26T21:57:53.538Z,24.10
2018-11-26T22:00:23.559Z,25.07
2018-11-26T22:02:51.323Z,24.40
2018-11-26T22:05:18.735Z,24.37
2018-11-26T22:07:46.196Z,25.23
2018-11-26T22:10:15.190Z,24.70
2018-11-26T22:12:43.293Z,25.87
2018-11-26T22:15:11.752Z,24.43
2018-11-26T22:17:39.413Z,25.93
2018-11-26T22:20:10.068Z,25.00
2018-11-26T22:22:37.506Z,24.63
2018-11-26T22:25:05.415Z,25.00
2018-11-26T22:27:33.045Z,23.67
2018-11-26T22:30:00.987Z,24.80
2018-11-26T22:32:28.427Z,24.43
2018-11-26T22:34:55.930Z,23.27
2018-11-26T22:37:23.415Z,24.40
2018-11-26T22:39:50.975Z,24.33
2018-11-26T22:42:18.432Z,22.70
2018-11-26T22:44:46.881Z,24.27
2018-11-26T22:47:14.377Z,23.93
2018-11-26T22:49:41.811Z,23.53
2018-11-26T22:52:09.482Z,24.60
2018-11-26T22:54:36.933Z,24.27
2018-11-26T22:57:04.370Z,23.63
2018-11-26T22:59:32.356Z,24.60
2018-11-26T23:02:00.301Z,25.40
2018-11-26T23:04:31.544Z,24.40
2018-11-26T23:07:00.846Z,24.30
2018-11-26T23:09:29.500Z,24.53
2018-11-26T23:11:56.985Z,22.67
2018-11-26T23:14:24.462Z,24.47
2018-11-26T23:16:51.944Z,22.90
2018-11-26T23:19:19.398Z,24.40
2018-11-26T23:21:58.085Z,24.33
2018-11-26T23:24:28.869Z,23.87
2018-11-26T23:26:56.327Z,24.07
2018-11-26T23:29:23.788Z,23.43
2018-11-26T23:31:51.889Z,24.13
2018-11-26T23:34:19.330Z,23.70
2018-11-26T23:36:46.759Z,23.40
2018-11-26T23:39:14.555Z,23.20
2018-11-26T23:41:42.128Z,23.70
2018-11-26T23:44:09.867Z,24.93
2018-11-26T23:46:37.438Z,23.97
2018-11-26T23:49:05.146Z,24.73
2018-11-26T23:51:33.272Z,25.03
2018-11-26T23:54:01.242Z,24.33
2018-11-26T23:56:28.948Z,25.33
2018-11-26T23:58:57.743Z,25.03
